Flight Track Log - Related Links

Times and Time Zones

All times are in EDT time to prevent confusion due to time zone crossing. See the LAK480 flight status page for this flight to view local times or setup timezone preferences in your user account.


Time Position Orientation Groundspeed Altitude Reporting Facility
EDT Latitude Longitude Course Direction KTS MPH feet Rate Location/Type
Sun 11:07:26 AM 27.9667 -82.5333 221° Southwest 168 193 800  Level Tampa TRACON
Sun 11:08:20 AM 27.9333 -82.5667 221° Southwest 202 232 3,700 3,350 Climbing Tampa TRACON
Sun 11:09:26 AM 27.9000 -82.6167 233° Southwest 221 254 7,500 3,143 Climbing Tampa TRACON
Sun 11:10:26 AM 27.8333 -82.6500 204° Southwest 267 307 10,300 1,686 Climbing Tampa TRACON
Sun 11:11:27 AM 27.7500 -82.6500 180° South 327 376 10,900 350 Climbing Tampa TRACON
Sun 11:12:26 AM 27.6833 -82.6000 146° Southeast 336 387 11,000  Climbing Tampa TRACON
Sun 11:13:26 AM 27.6667 -82.5000 101° East 332 382 10,900 -50 Descending Tampa TRACON
Sun 11:14:27 AM 27.6667 -82.3833 90° East 333 383 10,900  Level Tampa TRACON
Sun 11:15:27 AM 27.6500 -82.2833 101° East 332 382 10,900 48 Level Tampa TRACON
Sun 11:16:33 AM 27.7000 -82.2167 50° Northeast 300 345 11,000  Climbing Tampa TRACON
Sun 11:17:33 AM 27.7833 -82.1667 28° Northeast 293 337 10,900  Descending Tampa TRACON
Sun 11:18:33 AM 27.8500 -82.1167 34° Northeast 303 349 11,000 32 Climbing Tampa TRACON
Sun 11:20:41 AM 28.0000 -82.0000 34° Northeast 311 358 11,000  Level Orlando TRACON
Sun 11:21:41 AM 28.0333 -81.9167 66° East 311 358 11,000 -50 Level Orlando TRACON
Sun 11:22:41 AM 28.0833 -81.8333 56° Northeast 289 333 10,900 -522 Descending Orlando TRACON
Sun 11:23:36 AM 28.1167 -81.7667 60° Northeast 280 322 10,000 -1,200 Descending Orlando TRACON
Sun 11:24:36 AM 28.1833 -81.7333 24° Northeast 244 281 8,600 -1,500 Descending Orlando TRACON
Sun 11:25:36 AM 28.2500 -81.7333 360° North 230 265 7,000 -1,421 Descending Orlando TRACON
Sun 11:26:30 AM 28.3000 -81.7500 344° North 210 242 5,900 -1,100 Descending Orlando TRACON
Sun 11:27:36 AM 28.3667 -81.7333 12° North 194 223 4,800 -893 Descending Orlando TRACON
Sun 11:28:31 AM 28.3833 -81.6833 69° East 193 222 4,100 -942 Descending Orlando TRACON
Sun 11:29:37 AM 28.4000 -81.6167 74° East 215 247 2,900 -1,000 Descending Orlando TRACON
Sun 11:30:37 AM 28.4000 -81.5500 90° East 189 217 2,000 -474 Descending Orlando TRACON
Sun 11:31:31 AM 28.3833 -81.5000 111° Southeast 170 196 2,000 -417 Level Orlando TRACON
Sun 11:32:32 AM 28.3333 -81.4667 150° Southeast 180 207 1,200 -810 Descending Orlando TRACON
Sun 11:33:37 AM 28.3000 -81.4500 156° South 106 122 300 -831 Descending Orlando TRACON
Sun 11:35:00 AM 28.2833 -81.4333 139° Southeast  Level FlightAware Approximate

Login

Don't have an account? Register now (free) for customized features, flight alerts, and more!